Alsace Manor, Pennsylvania
Current Conditions -  °F | °C
As of 9:01 PM on Thursday 18 Dec 2014 (Local Time) from KRDG Reporting Station
Overcast Overcast  
Wind Chill: 28°   Ceiling: 3200
Heat Index: 36°   Visibility: 10mi
Dew Point: 25°   Wind: 12mph
Humidity: 64%   Direction: 280°W
Pressure: 30.05"   Gusts: NA
Location:  40.4008°N, 75.8851°W
Report Text: KRDG 190201Z 28010KT 10SM OVC032 02/M04 A3005 RMK AO2 T00221039
Loading
Personal Weather Stations






























Interactive Weather Map New forecast layout! Learn more

10-Day Weather Forecast

Advertisements
Track Severe Weather on mobile